sensor_id;sensor_type;location;lat;lon;timestamp;P1;durP1;ratioP1;P2;durP2;ratioP2
47337;SDS011;33069;51.970;5.892;2023-02-28T00:01:00;9.13;;;5.78;;
47337;SDS011;33069;51.970;5.892;2023-02-28T00:03:26;7.85;;;5.78;;
47337;SDS011;33069;51.970;5.892;2023-02-28T00:05:52;8.40;;;5.55;;
47337;SDS011;33069;51.970;5.892;2023-02-28T00:08:17;7.75;;;5.50;;
47337;SDS011;33069;51.970;5.892;2023-02-28T00:10:43;10.30;;;6.00;;
47337;SDS011;33069;51.970;5.892;2023-02-28T00:13:09;9.68;;;5.95;;
47337;SDS011;33069;51.970;5.892;2023-02-28T00:15:34;6.63;;;5.05;;
47337;SDS011;33069;51.970;5.892;2023-02-28T00:18:00;5.82;;;5.25;;
47337;SDS011;33069;51.970;5.892;2023-02-28T00:20:26;6.28;;;5.18;;
47337;SDS011;33069;51.970;5.892;2023-02-28T00:22:52;7.72;;;5.78;;
47337;SDS011;33069;51.970;5.892;2023-02-28T00:25:19;7.03;;;6.32;;
47337;SDS011;33069;51.970;5.892;2023-02-28T00:27:48;6.93;;;6.22;;
47337;SDS011;33069;51.970;5.892;2023-02-28T00:30:18;6.22;;;5.63;;
47337;SDS011;33069;51.970;5.892;2023-02-28T00:32:45;6.95;;;5.97;;
47337;SDS011;33069;51.970;5.892;2023-02-28T00:35:11;8.93;;;6.03;;
47337;SDS011;33069;51.970;5.892;2023-02-28T00:37:38;7.90;;;5.90;;
47337;SDS011;33069;51.970;5.892;2023-02-28T00:40:04;8.63;;;6.05;;
47337;SDS011;33069;51.970;5.892;2023-02-28T00:42:31;8.50;;;6.40;;
47337;SDS011;33069;51.970;5.892;2023-02-28T00:44:58;7.70;;;6.20;;
47337;SDS011;33069;51.970;5.892;2023-02-28T00:47:23;6.63;;;5.90;;
47337;SDS011;33069;51.970;5.892;2023-02-28T00:49:49;6.10;;;5.53;;
47337;SDS011;33069;51.970;5.892;2023-02-28T00:52:15;6.30;;;5.70;;
47337;SDS011;33069;51.970;5.892;2023-02-28T00:54:40;11.07;;;6.50;;
47337;SDS011;33069;51.970;5.892;2023-02-28T00:57:06;7.93;;;7.20;;
47337;SDS011;33069;51.970;5.892;2023-02-28T00:59:32;9.50;;;6.95;;
47337;SDS011;33069;51.970;5.892;2023-02-28T01:01:57;9.73;;;6.22;;
47337;SDS011;33069;51.970;5.892;2023-02-28T01:04:23;9.95;;;6.45;;
47337;SDS011;33069;51.970;5.892;2023-02-28T01:06:49;10.75;;;6.97;;
47337;SDS011;33069;51.970;5.892;2023-02-28T01:09:15;7.97;;;6.10;;
47337;SDS011;33069;51.970;5.892;2023-02-28T01:11:41;8.15;;;6.72;;
47337;SDS011;33069;51.970;5.892;2023-02-28T01:14:09;7.70;;;6.90;;
47337;SDS011;33069;51.970;5.892;2023-02-28T01:16:38;8.40;;;6.60;;
47337;SDS011;33069;51.970;5.892;2023-02-28T01:19:04;7.43;;;6.47;;
47337;SDS011;33069;51.970;5.892;2023-02-28T01:21:30;11.88;;;6.80;;
47337;SDS011;33069;51.970;5.892;2023-02-28T01:23:56;9.63;;;7.00;;
47337;SDS011;33069;51.970;5.892;2023-02-28T01:26:23;7.18;;;6.38;;
47337;SDS011;33069;51.970;5.892;2023-02-28T01:28:49;11.27;;;7.15;;
47337;SDS011;33069;51.970;5.892;2023-02-28T01:31:17;8.82;;;7.20;;
47337;SDS011;33069;51.970;5.892;2023-02-28T01:33:44;7.03;;;6.30;;
47337;SDS011;33069;51.970;5.892;2023-02-28T01:36:14;8.27;;;7.57;;
47337;SDS011;33069;51.970;5.892;2023-02-28T01:38:45;8.30;;;6.15;;
47337;SDS011;33069;51.970;5.892;2023-02-28T01:41:19;7.03;;;6.03;;
47337;SDS011;33069;51.970;5.892;2023-02-28T01:46:12;9.18;;;6.40;;
47337;SDS011;33069;51.970;5.892;2023-02-28T01:48:40;13.02;;;6.82;;
47337;SDS011;33069;51.970;5.892;2023-02-28T01:51:13;9.75;;;6.80;;
47337;SDS011;33069;51.970;5.892;2023-02-28T01:53:47;9.80;;;6.53;;
47337;SDS011;33069;51.970;5.892;2023-02-28T01:56:19;8.13;;;5.93;;
47337;SDS011;33069;51.970;5.892;2023-02-28T01:58:49;7.30;;;6.18;;
47337;SDS011;33069;51.970;5.892;2023-02-28T02:01:17;8.98;;;6.18;;
47337;SDS011;33069;51.970;5.892;2023-02-28T02:03:52;7.13;;;5.78;;
47337;SDS011;33069;51.970;5.892;2023-02-28T02:06:22;10.02;;;6.22;;
47337;SDS011;33069;51.970;5.892;2023-02-28T02:09:09;9.60;;;5.80;;
47337;SDS011;33069;51.970;5.892;2023-02-28T02:11:35;9.00;;;5.53;;
47337;SDS011;33069;51.970;5.892;2023-02-28T02:25:26;7.65;;;5.72;;
47337;SDS011;33069;51.970;5.892;2023-02-28T02:28:17;7.65;;;6.03;;
47337;SDS011;33069;51.970;5.892;2023-02-28T02:34:17;6.75;;;5.63;;
47337;SDS011;33069;51.970;5.892;2023-02-28T02:36:53;6.32;;;5.72;;
47337;SDS011;33069;51.970;5.892;2023-02-28T02:40:35;8.50;;;6.15;;
47337;SDS011;33069;51.970;5.892;2023-02-28T02:48:00;8.68;;;7.00;;
47337;SDS011;33069;51.970;5.892;2023-02-28T02:50:33;9.93;;;7.43;;
47337;SDS011;33069;51.970;5.892;2023-02-28T02:53:03;8.05;;;7.22;;
47337;SDS011;33069;51.970;5.892;2023-02-28T02:55:32;10.00;;;7.53;;
47337;SDS011;33069;51.970;5.892;2023-02-28T02:58:03;9.13;;;7.05;;
47337;SDS011;33069;51.970;5.892;2023-02-28T03:00:34;11.68;;;7.32;;
47337;SDS011;33069;51.970;5.892;2023-02-28T03:03:04;8.38;;;7.78;;
47337;SDS011;33069;51.970;5.892;2023-02-28T03:05:39;8.80;;;7.90;;
47337;SDS011;33069;51.970;5.892;2023-02-28T03:08:10;9.43;;;8.43;;
47337;SDS011;33069;51.970;5.892;2023-02-28T03:10:37;8.43;;;7.63;;
47337;SDS011;33069;51.970;5.892;2023-02-28T03:15:46;8.52;;;7.82;;
47337;SDS011;33069;51.970;5.892;2023-02-28T03:21:09;9.30;;;8.35;;
47337;SDS011;33069;51.970;5.892;2023-02-28T03:26:42;10.15;;;7.68;;
47337;SDS011;33069;51.970;5.892;2023-02-28T03:29:13;12.15;;;8.30;;
47337;SDS011;33069;51.970;5.892;2023-02-28T03:31:52;8.98;;;8.02;;
47337;SDS011;33069;51.970;5.892;2023-02-28T03:34:33;9.00;;;8.02;;
47337;SDS011;33069;51.970;5.892;2023-02-28T03:37:04;8.82;;;7.93;;
47337;SDS011;33069;51.970;5.892;2023-02-28T03:39:39;8.82;;;7.88;;
47337;SDS011;33069;51.970;5.892;2023-02-28T03:42:20;9.88;;;8.20;;
47337;SDS011;33069;51.970;5.892;2023-02-28T03:44:53;8.30;;;7.35;;
47337;SDS011;33069;51.970;5.892;2023-02-28T03:47:26;9.85;;;8.95;;
47337;SDS011;33069;51.970;5.892;2023-02-28T03:50:19;9.35;;;8.23;;
47337;SDS011;33069;51.970;5.892;2023-02-28T03:55:25;8.63;;;7.72;;
47337;SDS011;33069;51.970;5.892;2023-02-28T03:57:56;7.93;;;7.30;;
47337;SDS011;33069;51.970;5.892;2023-02-28T04:00:30;7.75;;;7.13;;
47337;SDS011;33069;51.970;5.892;2023-02-28T04:03:00;8.60;;;7.80;;
47337;SDS011;33069;51.970;5.892;2023-02-28T04:05:27;8.02;;;7.32;;
47337;SDS011;33069;51.970;5.892;2023-02-28T04:07:53;8.48;;;7.63;;
47337;SDS011;33069;51.970;5.892;2023-02-28T04:10:19;9.70;;;8.70;;
47337;SDS011;33069;51.970;5.892;2023-02-28T04:12:45;12.60;;;8.27;;
47337;SDS011;33069;51.970;5.892;2023-02-28T04:15:11;8.13;;;7.38;;
47337;SDS011;33069;51.970;5.892;2023-02-28T04:17:36;8.43;;;7.22;;
47337;SDS011;33069;51.970;5.892;2023-02-28T04:20:03;7.25;;;6.65;;
47337;SDS011;33069;51.970;5.892;2023-02-28T04:22:34;9.40;;;7.45;;
47337;SDS011;33069;51.970;5.892;2023-02-28T04:25:00;7.05;;;6.40;;
47337;SDS011;33069;51.970;5.892;2023-02-28T04:27:25;6.70;;;6.15;;
47337;SDS011;33069;51.970;5.892;2023-02-28T04:29:51;6.75;;;5.40;;
47337;SDS011;33069;51.970;5.892;2023-02-28T04:32:17;7.28;;;4.63;;
47337;SDS011;33069;51.970;5.892;2023-02-28T04:34:42;5.20;;;4.80;;
47337;SDS011;33069;51.970;5.892;2023-02-28T04:37:08;7.80;;;4.70;;
47337;SDS011;33069;51.970;5.892;2023-02-28T04:39:35;5.70;;;4.35;;
47337;SDS011;33069;51.970;5.892;2023-02-28T04:42:01;4.82;;;4.15;;
47337;SDS011;33069;51.970;5.892;2023-02-28T04:44:28;4.55;;;4.15;;
47337;SDS011;33069;51.970;5.892;2023-02-28T04:46:53;7.88;;;5.07;;
47337;SDS011;33069;51.970;5.892;2023-02-28T04:49:19;5.03;;;4.53;;
47337;SDS011;33069;51.970;5.892;2023-02-28T04:51:44;5.30;;;4.90;;
47337;SDS011;33069;51.970;5.892;2023-02-28T04:54:10;5.82;;;4.40;;
47337;SDS011;33069;51.970;5.892;2023-02-28T04:56:36;5.03;;;4.55;;
47337;SDS011;33069;51.970;5.892;2023-02-28T04:59:02;4.78;;;4.28;;
47337;SDS011;33069;51.970;5.892;2023-02-28T05:01:30;5.82;;;5.18;;
47337;SDS011;33069;51.970;5.892;2023-02-28T05:03:59;5.28;;;4.72;;
47337;SDS011;33069;51.970;5.892;2023-02-28T05:06:27;5.32;;;4.82;;
47337;SDS011;33069;51.970;5.892;2023-02-28T05:08:55;5.38;;;4.88;;
47337;SDS011;33069;51.970;5.892;2023-02-28T05:11:23;5.32;;;4.85;;
47337;SDS011;33069;51.970;5.892;2023-02-28T05:13:54;6.63;;;5.75;;
47337;SDS011;33069;51.970;5.892;2023-02-28T05:16:20;10.68;;;4.60;;
47337;SDS011;33069;51.970;5.892;2023-02-28T05:18:46;5.78;;;4.65;;
47337;SDS011;33069;51.970;5.892;2023-02-28T05:21:17;5.53;;;5.03;;
47337;SDS011;33069;51.970;5.892;2023-02-28T05:23:51;4.90;;;4.47;;
47337;SDS011;33069;51.970;5.892;2023-02-28T05:26:17;4.78;;;4.38;;
47337;SDS011;33069;51.970;5.892;2023-02-28T05:28:43;6.35;;;4.72;;
47337;SDS011;33069;51.970;5.892;2023-02-28T05:31:12;5.40;;;4.90;;
47337;SDS011;33069;51.970;5.892;2023-02-28T05:33:38;5.40;;;4.00;;
47337;SDS011;33069;51.970;5.892;2023-02-28T05:36:05;5.28;;;4.70;;
47337;SDS011;33069;51.970;5.892;2023-02-28T05:38:31;5.60;;;4.55;;
47337;SDS011;33069;51.970;5.892;2023-02-28T05:40:57;6.50;;;4.35;;
47337;SDS011;33069;51.970;5.892;2023-02-28T05:43:23;4.50;;;4.10;;
47337;SDS011;33069;51.970;5.892;2023-02-28T05:45:48;5.57;;;4.60;;
47337;SDS011;33069;51.970;5.892;2023-02-28T05:48:14;6.43;;;5.07;;
47337;SDS011;33069;51.970;5.892;2023-02-28T05:50:40;4.78;;;4.13;;
47337;SDS011;33069;51.970;5.892;2023-02-28T05:53:07;5.50;;;5.00;;
47337;SDS011;33069;51.970;5.892;2023-02-28T05:55:33;6.13;;;5.10;;
47337;SDS011;33069;51.970;5.892;2023-02-28T05:58:01;6.32;;;5.40;;
47337;SDS011;33069;51.970;5.892;2023-02-28T06:00:26;5.68;;;5.22;;
47337;SDS011;33069;51.970;5.892;2023-02-28T06:02:52;8.43;;;5.18;;
47337;SDS011;33069;51.970;5.892;2023-02-28T06:05:21;5.80;;;5.40;;
47337;SDS011;33069;51.970;5.892;2023-02-28T06:07:47;5.80;;;5.13;;
47337;SDS011;33069;51.970;5.892;2023-02-28T06:10:13;5.75;;;5.35;;
47337;SDS011;33069;51.970;5.892;2023-02-28T06:12:39;6.10;;;5.50;;
47337;SDS011;33069;51.970;5.892;2023-02-28T06:15:06;5.85;;;5.10;;
47337;SDS011;33069;51.970;5.892;2023-02-28T06:17:36;6.13;;;4.72;;
47337;SDS011;33069;51.970;5.892;2023-02-28T06:20:02;6.35;;;5.15;;
47337;SDS011;33069;51.970;5.892;2023-02-28T06:22:28;9.23;;;4.75;;
47337;SDS011;33069;51.970;5.892;2023-02-28T06:24:54;5.18;;;4.10;;
47337;SDS011;33069;51.970;5.892;2023-02-28T06:27:20;6.95;;;5.30;;
47337;SDS011;33069;51.970;5.892;2023-02-28T06:29:46;6.68;;;5.85;;
47337;SDS011;33069;51.970;5.892;2023-02-28T06:32:12;6.07;;;5.53;;
47337;SDS011;33069;51.970;5.892;2023-02-28T06:34:37;10.02;;;5.97;;
47337;SDS011;33069;51.970;5.892;2023-02-28T06:37:03;10.27;;;6.03;;
47337;SDS011;33069;51.970;5.892;2023-02-28T06:39:29;7.85;;;5.82;;
47337;SDS011;33069;51.970;5.892;2023-02-28T06:41:55;6.25;;;5.60;;
47337;SDS011;33069;51.970;5.892;2023-02-28T06:44:21;6.20;;;5.68;;
47337;SDS011;33069;51.970;5.892;2023-02-28T06:46:48;5.68;;;5.18;;
47337;SDS011;33069;51.970;5.892;2023-02-28T06:49:14;8.77;;;6.82;;
47337;SDS011;33069;51.970;5.892;2023-02-28T06:51:41;7.13;;;6.28;;
47337;SDS011;33069;51.970;5.892;2023-02-28T06:54:10;8.00;;;7.00;;
47337;SDS011;33069;51.970;5.892;2023-02-28T06:56:36;6.43;;;5.93;;
47337;SDS011;33069;51.970;5.892;2023-02-28T06:59:02;7.47;;;6.25;;
47337;SDS011;33069;51.970;5.892;2023-02-28T07:01:28;7.10;;;6.50;;
47337;SDS011;33069;51.970;5.892;2023-02-28T07:03:56;6.75;;;6.15;;
47337;SDS011;33069;51.970;5.892;2023-02-28T07:06:23;9.80;;;6.70;;
47337;SDS011;33069;51.970;5.892;2023-02-28T07:08:50;9.23;;;6.30;;
47337;SDS011;33069;51.970;5.892;2023-02-28T07:11:17;6.60;;;6.00;;
47337;SDS011;33069;51.970;5.892;2023-02-28T07:13:43;7.30;;;6.60;;
47337;SDS011;33069;51.970;5.892;2023-02-28T07:16:10;7.10;;;6.57;;
47337;SDS011;33069;51.970;5.892;2023-02-28T07:18:36;6.82;;;6.10;;
47337;SDS011;33069;51.970;5.892;2023-02-28T07:21:06;6.32;;;5.82;;
47337;SDS011;33069;51.970;5.892;2023-02-28T07:23:35;7.35;;;6.10;;
47337;SDS011;33069;51.970;5.892;2023-02-28T07:26:03;7.20;;;6.43;;
47337;SDS011;33069;51.970;5.892;2023-02-28T07:28:29;6.82;;;6.32;;
47337;SDS011;33069;51.970;5.892;2023-02-28T07:30:55;9.95;;;6.60;;
47337;SDS011;33069;51.970;5.892;2023-02-28T07:33:21;6.85;;;6.25;;
47337;SDS011;33069;51.970;5.892;2023-02-28T07:35:46;7.15;;;6.65;;
47337;SDS011;33069;51.970;5.892;2023-02-28T07:38:12;6.90;;;6.40;;
47337;SDS011;33069;51.970;5.892;2023-02-28T07:40:39;7.35;;;6.50;;
47337;SDS011;33069;51.970;5.892;2023-02-28T07:43:04;6.97;;;6.38;;
47337;SDS011;33069;51.970;5.892;2023-02-28T07:45:30;7.10;;;6.43;;
47337;SDS011;33069;51.970;5.892;2023-02-28T07:47:59;9.23;;;7.07;;
47337;SDS011;33069;51.970;5.892;2023-02-28T07:50:26;7.60;;;6.90;;
47337;SDS011;33069;51.970;5.892;2023-02-28T07:52:56;10.57;;;7.05;;
47337;SDS011;33069;51.970;5.892;2023-02-28T07:55:22;8.82;;;6.97;;
47337;SDS011;33069;51.970;5.892;2023-02-28T07:57:48;8.32;;;7.53;;
47337;SDS011;33069;51.970;5.892;2023-02-28T08:00:14;7.60;;;6.90;;
47337;SDS011;33069;51.970;5.892;2023-02-28T08:02:40;7.57;;;6.88;;
47337;SDS011;33069;51.970;5.892;2023-02-28T08:05:06;7.40;;;6.70;;
47337;SDS011;33069;51.970;5.892;2023-02-28T08:07:32;7.57;;;6.97;;
47337;SDS011;33069;51.970;5.892;2023-02-28T08:09:58;7.30;;;6.60;;
47337;SDS011;33069;51.970;5.892;2023-02-28T08:12:25;7.38;;;6.68;;
47337;SDS011;33069;51.970;5.892;2023-02-28T08:14:50;7.82;;;6.95;;
47337;SDS011;33069;51.970;5.892;2023-02-28T08:17:16;7.40;;;6.80;;
47337;SDS011;33069;51.970;5.892;2023-02-28T08:19:42;6.80;;;6.30;;
47337;SDS011;33069;51.970;5.892;2023-02-28T08:22:11;6.88;;;6.30;;
47337;SDS011;33069;51.970;5.892;2023-02-28T08:24:36;6.53;;;6.03;;
47337;SDS011;33069;51.970;5.892;2023-02-28T08:27:02;8.68;;;7.00;;
47337;SDS011;33069;51.970;5.892;2023-02-28T08:29:28;6.75;;;6.10;;
47337;SDS011;33069;51.970;5.892;2023-02-28T08:31:55;6.35;;;5.88;;
47337;SDS011;33069;51.970;5.892;2023-02-28T08:34:21;7.13;;;5.53;;
47337;SDS011;33069;51.970;5.892;2023-02-28T08:36:46;6.63;;;5.85;;
47337;SDS011;33069;51.970;5.892;2023-02-28T08:39:12;6.70;;;5.35;;
47337;SDS011;33069;51.970;5.892;2023-02-28T08:41:38;5.35;;;4.93;;
47337;SDS011;33069;51.970;5.892;2023-02-28T08:44:03;7.55;;;5.93;;
47337;SDS011;33069;51.970;5.892;2023-02-28T08:46:29;5.97;;;4.90;;
47337;SDS011;33069;51.970;5.892;2023-02-28T08:48:56;5.38;;;4.57;;
47337;SDS011;33069;51.970;5.892;2023-02-28T08:51:27;5.43;;;4.93;;
47337;SDS011;33069;51.970;5.892;2023-02-28T08:53:54;5.63;;;4.80;;
47337;SDS011;33069;51.970;5.892;2023-02-28T08:56:21;5.32;;;4.85;;
47337;SDS011;33069;51.970;5.892;2023-02-28T08:58:47;5.90;;;5.40;;
47337;SDS011;33069;51.970;5.892;2023-02-28T09:01:18;5.43;;;5.03;;
47337;SDS011;33069;51.970;5.892;2023-02-28T09:03:46;5.40;;;4.90;;
47337;SDS011;33069;51.970;5.892;2023-02-28T09:06:14;6.65;;;5.50;;
47337;SDS011;33069;51.970;5.892;2023-02-28T09:08:40;5.47;;;5.07;;
47337;SDS011;33069;51.970;5.892;2023-02-28T09:11:07;5.90;;;5.30;;
47337;SDS011;33069;51.970;5.892;2023-02-28T09:13:33;7.70;;;5.47;;
47337;SDS011;33069;51.970;5.892;2023-02-28T09:15:59;5.20;;;4.80;;
47337;SDS011;33069;51.970;5.892;2023-02-28T09:18:27;5.10;;;4.60;;
47337;SDS011;33069;51.970;5.892;2023-02-28T09:20:53;5.72;;;4.53;;
47337;SDS011;33069;51.970;5.892;2023-02-28T09:23:19;5.50;;;4.95;;
47337;SDS011;33069;51.970;5.892;2023-02-28T09:25:46;5.32;;;5.03;;
47337;SDS011;33069;51.970;5.892;2023-02-28T09:28:13;5.93;;;5.40;;
47337;SDS011;33069;51.970;5.892;2023-02-28T09:30:46;5.60;;;4.97;;
47337;SDS011;33069;51.970;5.892;2023-02-28T09:33:13;5.35;;;4.95;;
47337;SDS011;33069;51.970;5.892;2023-02-28T09:35:40;6.00;;;5.47;;
47337;SDS011;33069;51.970;5.892;2023-02-28T09:38:08;4.90;;;4.55;;
47337;SDS011;33069;51.970;5.892;2023-02-28T09:40:36;5.40;;;5.00;;
47337;SDS011;33069;51.970;5.892;2023-02-28T09:43:14;5.22;;;4.82;;
47337;SDS011;33069;51.970;5.892;2023-02-28T09:45:43;5.32;;;4.68;;
47337;SDS011;33069;51.970;5.892;2023-02-28T09:48:28;5.28;;;4.82;;
47337;SDS011;33069;51.970;5.892;2023-02-28T09:51:04;5.10;;;4.70;;
47337;SDS011;33069;51.970;5.892;2023-02-28T09:53:37;5.53;;;5.00;;
47337;SDS011;33069;51.970;5.892;2023-02-28T09:56:08;6.57;;;5.50;;
47337;SDS011;33069;51.970;5.892;2023-02-28T10:04:00;4.68;;;4.22;;
47337;SDS011;33069;51.970;5.892;2023-02-28T10:06:29;4.78;;;4.38;;
47337;SDS011;33069;51.970;5.892;2023-02-28T10:09:23;6.22;;;4.30;;
47337;SDS011;33069;51.970;5.892;2023-02-28T10:11:47;5.50;;;5.00;;
47337;SDS011;33069;51.970;5.892;2023-02-28T10:14:21;5.28;;;4.75;;
47337;SDS011;33069;51.970;5.892;2023-02-28T10:16:54;4.75;;;4.35;;
47337;SDS011;33069;51.970;5.892;2023-02-28T10:19:44;6.53;;;4.50;;
47337;SDS011;33069;51.970;5.892;2023-02-28T10:22:57;4.93;;;4.53;;
47337;SDS011;33069;51.970;5.892;2023-02-28T10:25:18;4.70;;;4.30;;
47337;SDS011;33069;51.970;5.892;2023-02-28T10:27:46;4.82;;;4.20;;
47337;SDS011;33069;51.970;5.892;2023-02-28T10:30:12;5.10;;;4.68;;
47337;SDS011;33069;51.970;5.892;2023-02-28T10:32:43;4.53;;;4.22;;
47337;SDS011;33069;51.970;5.892;2023-02-28T10:35:19;4.30;;;4.00;;
47337;SDS011;33069;51.970;5.892;2023-02-28T10:37:54;4.65;;;4.25;;
47337;SDS011;33069;51.970;5.892;2023-02-28T10:40:27;4.78;;;4.25;;
47337;SDS011;33069;51.970;5.892;2023-02-28T10:43:04;5.40;;;4.90;;
47337;SDS011;33069;51.970;5.892;2023-02-28T10:45:52;4.90;;;4.50;;
47337;SDS011;33069;51.970;5.892;2023-02-28T10:50:55;4.22;;;3.80;;
47337;SDS011;33069;51.970;5.892;2023-02-28T11:01:39;5.50;;;4.50;;
47337;SDS011;33069;51.970;5.892;2023-02-28T11:06:56;5.18;;;4.68;;
47337;SDS011;33069;51.970;5.892;2023-02-28T11:09:28;4.65;;;4.25;;
47337;SDS011;33069;51.970;5.892;2023-02-28T11:12:04;5.38;;;4.93;;
47337;SDS011;33069;51.970;5.892;2023-02-28T11:14:40;4.90;;;4.35;;
47337;SDS011;33069;51.970;5.892;2023-02-28T11:17:15;4.88;;;4.53;;
47337;SDS011;33069;51.970;5.892;2023-02-28T11:19:59;4.95;;;4.55;;
47337;SDS011;33069;51.970;5.892;2023-02-28T11:22:33;5.07;;;4.68;;
47337;SDS011;33069;51.970;5.892;2023-02-28T11:25:54;5.88;;;4.70;;
47337;SDS011;33069;51.970;5.892;2023-02-28T11:27:57;4.53;;;4.13;;
47337;SDS011;33069;51.970;5.892;2023-02-28T11:30:31;4.32;;;4.03;;
47337;SDS011;33069;51.970;5.892;2023-02-28T11:35:57;4.13;;;3.83;;
47337;SDS011;33069;51.970;5.892;2023-02-28T11:38:28;4.65;;;4.13;;
47337;SDS011;33069;51.970;5.892;2023-02-28T11:41:06;4.63;;;3.83;;
47337;SDS011;33069;51.970;5.892;2023-02-28T11:52:06;4.43;;;3.95;;
47337;SDS011;33069;51.970;5.892;2023-02-28T11:59:57;8.07;;;4.20;;
47337;SDS011;33069;51.970;5.892;2023-02-28T12:03:32;4.17;;;3.77;;
47337;SDS011;33069;51.970;5.892;2023-02-28T12:05:46;4.43;;;4.03;;
47337;SDS011;33069;51.970;5.892;2023-02-28T12:08:22;4.55;;;4.15;;
47337;SDS011;33069;51.970;5.892;2023-02-28T12:11:52;4.40;;;4.00;;
47337;SDS011;33069;51.970;5.892;2023-02-28T12:27:55;5.15;;;4.75;;
47337;SDS011;33069;51.970;5.892;2023-02-28T12:30:22;4.50;;;4.10;;
47337;SDS011;33069;51.970;5.892;2023-02-28T12:33:02;6.30;;;4.40;;
47337;SDS011;33069;51.970;5.892;2023-02-28T12:35:34;5.20;;;4.50;;
47337;SDS011;33069;51.970;5.892;2023-02-28T12:38:05;4.78;;;4.38;;
47337;SDS011;33069;51.970;5.892;2023-02-28T12:43:14;6.03;;;4.53;;
47337;SDS011;33069;51.970;5.892;2023-02-28T12:45:48;4.53;;;4.15;;
47337;SDS011;33069;51.970;5.892;2023-02-28T12:48:37;4.80;;;4.40;;
47337;SDS011;33069;51.970;5.892;2023-02-28T12:51:09;6.30;;;5.28;;
47337;SDS011;33069;51.970;5.892;2023-02-28T12:58:55;4.90;;;4.40;;
47337;SDS011;33069;51.970;5.892;2023-02-28T13:09:32;4.50;;;4.20;;
47337;SDS011;33069;51.970;5.892;2023-02-28T13:11:58;4.80;;;4.32;;
47337;SDS011;33069;51.970;5.892;2023-02-28T13:14:37;4.68;;;4.13;;
47337;SDS011;33069;51.970;5.892;2023-02-28T13:17:10;4.80;;;4.43;;
47337;SDS011;33069;51.970;5.892;2023-02-28T13:20:02;5.78;;;4.22;;
47337;SDS011;33069;51.970;5.892;2023-02-28T13:25:00;4.75;;;4.35;;
47337;SDS011;33069;51.970;5.892;2023-02-28T13:27:32;4.53;;;4.22;;
47337;SDS011;33069;51.970;5.892;2023-02-28T13:33:21;4.40;;;4.10;;
47337;SDS011;33069;51.970;5.892;2023-02-28T13:35:48;5.57;;;5.00;;
47337;SDS011;33069;51.970;5.892;2023-02-28T13:38:32;4.95;;;4.55;;
47337;SDS011;33069;51.970;5.892;2023-02-28T13:44:06;5.03;;;4.63;;
47337;SDS011;33069;51.970;5.892;2023-02-28T13:49:19;5.78;;;4.70;;
47337;SDS011;33069;51.970;5.892;2023-02-28T13:52:33;5.50;;;5.10;;
47337;SDS011;33069;51.970;5.892;2023-02-28T13:57:11;6.90;;;4.90;;
47337;SDS011;33069;51.970;5.892;2023-02-28T14:05:21;6.07;;;5.47;;
47337;SDS011;33069;51.970;5.892;2023-02-28T14:08:03;5.43;;;4.93;;
47337;SDS011;33069;51.970;5.892;2023-02-28T14:15:57;4.82;;;4.53;;
47337;SDS011;33069;51.970;5.892;2023-02-28T14:18:29;5.93;;;5.40;;
47337;SDS011;33069;51.970;5.892;2023-02-28T14:21:08;5.22;;;4.75;;
47337;SDS011;33069;51.970;5.892;2023-02-28T14:29:59;5.30;;;4.90;;
47337;SDS011;33069;51.970;5.892;2023-02-28T14:38:43;6.03;;;5.53;;
47337;SDS011;33069;51.970;5.892;2023-02-28T14:41:22;6.22;;;5.70;;
47337;SDS011;33069;51.970;5.892;2023-02-28T14:43:57;6.50;;;5.97;;
47337;SDS011;33069;51.970;5.892;2023-02-28T14:46:37;6.25;;;5.45;;
47337;SDS011;33069;51.970;5.892;2023-02-28T14:49:05;7.32;;;5.75;;
47337;SDS011;33069;51.970;5.892;2023-02-28T14:51:37;6.43;;;5.93;;
47337;SDS011;33069;51.970;5.892;2023-02-28T14:54:03;6.15;;;5.65;;
47337;SDS011;33069;51.970;5.892;2023-02-28T14:56:35;5.72;;;5.32;;
47337;SDS011;33069;51.970;5.892;2023-02-28T14:59:03;5.93;;;5.53;;
47337;SDS011;33069;51.970;5.892;2023-02-28T15:01:30;6.40;;;5.80;;
47337;SDS011;33069;51.970;5.892;2023-02-28T15:04:03;6.07;;;5.57;;
47337;SDS011;33069;51.970;5.892;2023-02-28T15:06:31;5.90;;;5.50;;
47337;SDS011;33069;51.970;5.892;2023-02-28T15:09:08;6.05;;;5.50;;
47337;SDS011;33069;51.970;5.892;2023-02-28T15:11:38;6.20;;;5.70;;
47337;SDS011;33069;51.970;5.892;2023-02-28T15:14:04;6.32;;;5.78;;
47337;SDS011;33069;51.970;5.892;2023-02-28T15:16:34;6.25;;;5.70;;
47337;SDS011;33069;51.970;5.892;2023-02-28T15:21:51;7.00;;;6.43;;
47337;SDS011;33069;51.970;5.892;2023-02-28T15:27:20;6.00;;;5.40;;
47337;SDS011;33069;51.970;5.892;2023-02-28T15:29:50;5.95;;;5.45;;
47337;SDS011;33069;51.970;5.892;2023-02-28T15:32:23;6.50;;;5.43;;
47337;SDS011;33069;51.970;5.892;2023-02-28T15:34:49;6.70;;;6.03;;
47337;SDS011;33069;51.970;5.892;2023-02-28T15:42:39;5.90;;;5.50;;
47337;SDS011;33069;51.970;5.892;2023-02-28T15:45:26;6.85;;;6.25;;
47337;SDS011;33069;51.970;5.892;2023-02-28T15:48:09;6.13;;;5.72;;
47337;SDS011;33069;51.970;5.892;2023-02-28T15:50:43;6.55;;;6.10;;
47337;SDS011;33069;51.970;5.892;2023-02-28T15:53:13;6.30;;;5.70;;
47337;SDS011;33069;51.970;5.892;2023-02-28T15:55:44;5.50;;;5.10;;
47337;SDS011;33069;51.970;5.892;2023-02-28T15:58:10;6.22;;;5.72;;
47337;SDS011;33069;51.970;5.892;2023-02-28T16:00:38;6.78;;;6.07;;
47337;SDS011;33069;51.970;5.892;2023-02-28T16:08:42;5.80;;;5.40;;
47337;SDS011;33069;51.970;5.892;2023-02-28T16:11:10;6.53;;;6.03;;
47337;SDS011;33069;51.970;5.892;2023-02-28T16:13:36;6.50;;;6.00;;
47337;SDS011;33069;51.970;5.892;2023-02-28T16:16:02;7.10;;;6.60;;
47337;SDS011;33069;51.970;5.892;2023-02-28T16:18:28;5.65;;;5.25;;
47337;SDS011;33069;51.970;5.892;2023-02-28T16:20:54;6.20;;;5.70;;
47337;SDS011;33069;51.970;5.892;2023-02-28T16:23:20;5.70;;;5.20;;
47337;SDS011;33069;51.970;5.892;2023-02-28T16:25:45;6.43;;;5.80;;
47337;SDS011;33069;51.970;5.892;2023-02-28T16:28:18;7.32;;;6.75;;
47337;SDS011;33069;51.970;5.892;2023-02-28T16:30:46;7.13;;;6.43;;
47337;SDS011;33069;51.970;5.892;2023-02-28T16:33:12;7.32;;;6.60;;
47337;SDS011;33069;51.970;5.892;2023-02-28T16:35:37;6.35;;;5.85;;
47337;SDS011;33069;51.970;5.892;2023-02-28T16:38:03;7.13;;;6.40;;
47337;SDS011;33069;51.970;5.892;2023-02-28T16:40:29;9.60;;;7.10;;
47337;SDS011;33069;51.970;5.892;2023-02-28T16:42:59;6.95;;;6.45;;
47337;SDS011;33069;51.970;5.892;2023-02-28T16:45:29;6.45;;;5.95;;
47337;SDS011;33069;51.970;5.892;2023-02-28T16:47:55;6.57;;;6.18;;
47337;SDS011;33069;51.970;5.892;2023-02-28T16:50:22;7.32;;;6.60;;
47337;SDS011;33069;51.970;5.892;2023-02-28T16:52:50;7.45;;;6.85;;
47337;SDS011;33069;51.970;5.892;2023-02-28T16:55:20;6.90;;;6.40;;
47337;SDS011;33069;51.970;5.892;2023-02-28T16:57:53;6.50;;;6.10;;
47337;SDS011;33069;51.970;5.892;2023-02-28T17:00:24;7.35;;;6.72;;
47337;SDS011;33069;51.970;5.892;2023-02-28T17:02:52;7.13;;;6.53;;
47337;SDS011;33069;51.970;5.892;2023-02-28T17:05:18;7.47;;;6.25;;
47337;SDS011;33069;51.970;5.892;2023-02-28T17:07:45;6.93;;;6.40;;
47337;SDS011;33069;51.970;5.892;2023-02-28T17:10:13;7.20;;;6.60;;
47337;SDS011;33069;51.970;5.892;2023-02-28T17:12:41;6.55;;;6.05;;
47337;SDS011;33069;51.970;5.892;2023-02-28T17:15:08;9.23;;;7.60;;
47337;SDS011;33069;51.970;5.892;2023-02-28T17:17:38;6.30;;;5.70;;
47337;SDS011;33069;51.970;5.892;2023-02-28T17:20:04;6.30;;;5.70;;
47337;SDS011;33069;51.970;5.892;2023-02-28T17:22:31;6.50;;;5.95;;
47337;SDS011;33069;51.970;5.892;2023-02-28T17:24:57;8.95;;;6.30;;
47337;SDS011;33069;51.970;5.892;2023-02-28T17:27:24;6.22;;;5.35;;
47337;SDS011;33069;51.970;5.892;2023-02-28T17:29:50;6.32;;;5.55;;
47337;SDS011;33069;51.970;5.892;2023-02-28T17:32:16;5.72;;;5.00;;
47337;SDS011;33069;51.970;5.892;2023-02-28T17:34:42;5.80;;;5.30;;
47337;SDS011;33069;51.970;5.892;2023-02-28T17:37:08;17.40;;;11.25;;